createdAt,value
2018-02-20T00:02:05.974Z,88.93
2018-02-20T00:04:34.239Z,88.46
2018-02-20T00:07:02.519Z,88.30
2018-02-20T00:09:30.814Z,87.35
2018-02-20T00:12:00.218Z,87.16
2018-02-20T00:14:28.512Z,86.98
2018-02-20T00:16:56.818Z,86.63
2018-02-20T00:19:25.903Z,87.06
2018-02-20T00:21:54.167Z,87.44
2018-02-20T00:24:22.435Z,87.42
2018-02-20T00:26:50.711Z,87.36
2018-02-20T00:29:18.971Z,88.37
2018-02-20T00:31:47.246Z,88.46
2018-02-20T00:34:15.510Z,88.04
2018-02-20T00:36:43.783Z,88.70
2018-02-20T00:39:12.047Z,89.18
2018-02-20T00:41:40.312Z,89.58
2018-02-20T00:44:08.632Z,90.08
2018-02-20T00:46:36.891Z,90.32
2018-02-20T00:49:05.173Z,89.96
2018-02-20T00:51:33.441Z,89.79
2018-02-20T00:54:01.728Z,89.84
2018-02-20T00:56:29.989Z,90.26
2018-02-20T00:58:58.264Z,90.54
2018-02-20T01:01:26.522Z,89.91
2018-02-20T01:03:54.812Z,90.21
2018-02-20T01:06:23.075Z,90.12
2018-02-20T01:08:51.355Z,89.76
2018-02-20T01:11:19.635Z,89.92
2018-02-20T01:13:47.888Z,89.56
2018-02-20T01:16:18.447Z,88.68
2018-02-20T01:18:46.690Z,88.89
2018-02-20T01:21:14.978Z,89.61
2018-02-20T01:23:43.244Z,90.26
2018-02-20T01:26:12.310Z,89.34
2018-02-20T01:28:40.583Z,89.12
2018-02-20T01:31:08.899Z,88.90
2018-02-20T01:33:37.949Z,89.45
2018-02-20T01:36:06.216Z,89.51
2018-02-20T01:38:34.488Z,89.76
2018-02-20T01:41:02.759Z,89.53
2018-02-20T01:43:31.035Z,89.27
2018-02-20T01:45:59.303Z,89.01
2018-02-20T01:48:27.571Z,89.65
2018-02-20T01:51:08.546Z,89.15
2018-02-20T01:53:36.848Z,88.47
2018-02-20T01:56:05.115Z,88.76
2018-02-20T01:58:33.420Z,89.45
2018-02-20T02:01:01.673Z,90.04
2018-02-20T02:03:29.942Z,90.07
2018-02-20T02:05:58.205Z,90.22
2018-02-20T02:08:26.476Z,89.54
2018-02-20T02:10:54.740Z,89.47
2018-02-20T02:13:22.999Z,88.74
2018-02-20T02:15:52.039Z,88.23
2018-02-20T02:18:21.116Z,87.65
2018-02-20T02:20:49.382Z,87.92
2018-02-20T02:23:17.658Z,88.32
2018-02-20T02:25:45.911Z,88.24
2018-02-20T02:28:14.946Z,88.66
2018-02-20T02:30:43.220Z,89.21
2018-02-20T02:33:11.484Z,88.56
2018-02-20T02:35:39.771Z,89.10
2018-02-20T02:38:08.033Z,90.13
2018-02-20T02:40:36.310Z,89.98
2018-02-20T02:43:04.565Z,89.33
2018-02-20T02:45:33.630Z,88.80
2018-02-20T02:48:01.890Z,88.81
2018-02-20T02:50:30.164Z,88.46
2018-02-20T02:52:58.430Z,88.92
2018-02-20T02:55:26.694Z,89.48
2018-02-20T02:57:54.975Z,89.35
2018-02-20T03:00:23.235Z,89.46
2018-02-20T03:02:51.507Z,90.05
2018-02-20T03:05:19.775Z,90.57
2018-02-20T03:07:48.082Z,90.71
2018-02-20T03:10:16.350Z,91.21
2018-02-20T03:12:44.606Z,90.61
2018-02-20T03:15:12.880Z,90.43
2018-02-20T03:17:41.145Z,90.36
2018-02-20T03:20:10.214Z,90.11
2018-02-20T03:22:38.499Z,90.07
2018-02-20T03:25:07.524Z,90.00
2018-02-20T03:27:35.834Z,89.62
2018-02-20T03:30:04.100Z,90.22
2018-02-20T03:32:32.379Z,90.87
2018-02-20T03:35:00.671Z,90.64
2018-02-20T03:37:28.951Z,90.33
2018-02-20T03:39:57.236Z,90.12
2018-02-20T03:42:25.498Z,89.22
2018-02-20T03:44:53.771Z,89.15
2018-02-20T03:47:22.026Z,88.90
2018-02-20T03:49:50.299Z,89.09
2018-02-20T03:52:18.559Z,88.88
2018-02-20T03:54:46.812Z,88.83
2018-02-20T03:57:15.874Z,89.27
2018-02-20T03:59:44.141Z,88.34
2018-02-20T04:02:12.407Z,89.53
2018-02-20T04:04:40.685Z,90.81
2018-02-20T04:07:08.944Z,90.65
2018-02-20T04:09:37.211Z,90.31
2018-02-20T04:12:06.320Z,90.25
2018-02-20T04:14:34.583Z,89.28
2018-02-20T04:17:02.842Z,88.90
2018-02-20T04:19:31.871Z,89.26
2018-02-20T04:22:00.230Z,89.48
2018-02-20T04:24:28.494Z,89.92
2018-02-20T04:26:56.763Z,89.88
2018-02-20T04:29:25.790Z,89.87
2018-02-20T04:31:54.052Z,89.36
2018-02-20T04:34:22.344Z,89.48
2018-02-20T04:36:50.579Z,89.12
2018-02-20T04:39:19.627Z,89.75
2018-02-20T04:41:47.883Z,89.89
2018-02-20T04:44:16.281Z,89.68
2018-02-20T04:46:44.538Z,90.72
2018-02-20T04:49:12.793Z,90.08
2018-02-20T04:51:41.067Z,90.14
2018-02-20T04:54:09.326Z,89.14
2018-02-20T04:56:38.376Z,88.36
2018-02-20T04:59:06.626Z,88.10
2018-02-20T05:01:34.899Z,88.81
2018-02-20T05:04:03.162Z,88.56
2018-02-20T05:06:31.440Z,88.91
2018-02-20T05:08:59.735Z,88.61
2018-02-20T05:11:28.014Z,88.70
2018-02-20T05:13:56.279Z,88.87
2018-02-20T05:16:24.535Z,89.68
2018-02-20T05:18:53.567Z,89.38
2018-02-20T05:21:21.844Z,90.10
2018-02-20T05:23:50.100Z,90.53
2018-02-20T05:26:18.371Z,90.14
2018-02-20T05:28:46.631Z,90.10
2018-02-20T05:31:15.673Z,89.56
2018-02-20T05:33:43.930Z,88.64
2018-02-20T05:36:12.203Z,89.03
2018-02-20T05:38:40.470Z,89.21
2018-02-20T05:41:08.730Z,89.23
2018-02-20T05:43:37.783Z,89.41
2018-02-20T05:46:06.059Z,89.31
2018-02-20T05:48:34.343Z,89.70
2018-02-20T05:51:02.613Z,90.38
2018-02-20T05:53:30.860Z,90.69
2018-02-20T05:55:59.156Z,90.59
2018-02-20T05:58:27.426Z,90.71
2018-02-20T06:00:56.513Z,91.23
2018-02-20T06:03:24.763Z,90.37
2018-02-20T06:05:53.027Z,90.31
2018-02-20T06:08:21.295Z,90.84
2018-02-20T06:10:50.326Z,91.54
2018-02-20T06:13:18.610Z,91.32
2018-02-20T06:15:46.876Z,90.51
2018-02-20T06:18:15.135Z,90.04
2018-02-20T06:20:43.412Z,89.87
2018-02-20T06:23:11.669Z,89.70
2018-02-20T06:25:40.708Z,89.72
2018-02-20T06:28:08.969Z,89.61
2018-02-20T06:30:37.269Z,88.90
2018-02-20T06:33:05.547Z,88.07
2018-02-20T06:35:33.948Z,87.71
2018-02-20T06:38:02.236Z,87.29
2018-02-20T06:40:31.359Z,87.55
2018-02-20T06:42:59.620Z,87.72
2018-02-20T06:45:28.654Z,87.67
2018-02-20T06:47:56.915Z,88.32
2018-02-20T06:50:25.253Z,90.25
2018-02-20T06:52:54.291Z,90.34
2018-02-20T06:55:22.570Z,90.38
2018-02-20T06:57:50.853Z,91.41
2018-02-20T07:00:19.147Z,91.90
2018-02-20T07:02:47.460Z,91.50
2018-02-20T07:05:15.689Z,91.36
2018-02-20T07:07:43.947Z,91.11
2018-02-20T07:10:12.239Z,90.75
2018-02-20T07:12:40.498Z,90.93
2018-02-20T07:15:08.773Z,90.59
2018-02-20T07:17:37.033Z,90.41
2018-02-20T07:20:05.319Z,90.10
2018-02-20T07:22:33.582Z,90.78
2018-02-20T07:25:01.870Z,91.08
2018-02-20T07:27:30.136Z,91.76
2018-02-20T07:29:58.402Z,91.88
2018-02-20T07:32:26.686Z,91.13
2018-02-20T07:34:54.952Z,90.30
2018-02-20T07:37:23.231Z,89.25
2018-02-20T07:39:51.498Z,88.48
2018-02-20T07:42:20.535Z,88.18
2018-02-20T07:44:48.820Z,87.74
2018-02-20T07:47:17.875Z,87.47
2018-02-20T07:49:46.131Z,86.86
2018-02-20T07:52:15.258Z,86.88
2018-02-20T07:54:43.543Z,86.71
2018-02-20T07:57:11.819Z,86.46
2018-02-20T07:59:40.091Z,86.13
2018-02-20T08:02:08.370Z,85.75
2018-02-20T08:04:36.630Z,85.40
2018-02-20T08:07:04.961Z,85.53
2018-02-20T08:09:33.227Z,85.39
2018-02-20T08:12:01.504Z,85.51
2018-02-20T08:14:29.794Z,86.04
2018-02-20T08:16:58.064Z,86.34
2018-02-20T08:19:26.335Z,86.76
2018-02-20T08:21:54.628Z,87.13
2018-02-20T08:24:22.918Z,87.45
2018-02-20T08:26:51.947Z,87.72
2018-02-20T08:29:20.206Z,88.41
2018-02-20T08:31:48.489Z,88.45
2018-02-20T08:34:16.746Z,88.34
2018-02-20T08:36:45.105Z,88.47
2018-02-20T08:39:13.394Z,88.70
2018-02-20T08:41:42.479Z,89.36
2018-02-20T08:44:11.509Z,89.22
2018-02-20T08:46:39.774Z,89.08
2018-02-20T08:49:08.054Z,88.79
2018-02-20T08:51:36.315Z,88.48
2018-02-20T08:54:05.368Z,88.50
2018-02-20T08:56:33.654Z,87.81
2018-02-20T08:59:01.911Z,87.15
2018-02-20T09:01:30.187Z,86.50
2018-02-20T09:03:58.453Z,85.82
2018-02-20T09:06:26.729Z,86.18
2018-02-20T09:08:54.998Z,86.33
2018-02-20T09:11:23.254Z,85.35
2018-02-20T09:13:52.279Z,85.19
2018-02-20T09:16:21.426Z,84.13
2018-02-20T09:18:50.459Z,84.38
2018-02-20T09:21:18.725Z,83.34
2018-02-20T09:23:46.987Z,83.40
2018-02-20T09:26:15.250Z,83.19
2018-02-20T09:28:44.281Z,83.76
2018-02-20T09:31:12.527Z,82.37
2018-02-20T09:33:40.808Z,82.88
2018-02-20T09:36:09.083Z,81.56
2018-02-20T09:38:37.335Z,80.62
2018-02-20T09:41:06.362Z,79.66
2018-02-20T09:43:34.665Z,78.71
2018-02-20T09:46:02.874Z,78.16
2018-02-20T09:48:31.920Z,77.56
2018-02-20T09:51:00.182Z,77.17
2018-02-20T09:53:28.435Z,76.98
2018-02-20T09:55:57.447Z,75.87
2018-02-20T09:58:25.717Z,75.37
2018-02-20T10:00:53.983Z,75.87
2018-02-20T10:03:22.259Z,75.93
2018-02-20T10:05:50.536Z,75.94
2018-02-20T10:08:19.640Z,76.90
2018-02-20T10:10:47.907Z,75.75
2018-02-20T10:13:16.943Z,75.18
2018-02-20T10:15:45.240Z,75.07
2018-02-20T10:18:13.500Z,74.92
2018-02-20T10:20:41.765Z,73.58
2018-02-20T10:23:10.019Z,72.52
2018-02-20T10:25:38.290Z,71.66
2018-02-20T10:28:06.538Z,72.86
2018-02-20T10:30:35.587Z,72.90
2018-02-20T10:33:03.852Z,71.68
2018-02-20T10:35:32.110Z,72.13
2018-02-20T10:38:00.433Z,70.88
2018-02-20T10:40:28.691Z,70.86
2018-02-20T10:42:56.948Z,70.46
2018-02-20T10:45:25.235Z,69.26
2018-02-20T10:47:53.491Z,67.78
2018-02-20T10:50:21.761Z,67.34
2018-02-20T10:52:50.015Z,65.08
2018-02-20T10:55:19.046Z,64.13
2018-02-20T10:57:47.340Z,64.79
2018-02-20T11:00:15.588Z,62.34
2018-02-20T11:02:43.858Z,62.36
2018-02-20T11:05:12.118Z,62.20
2018-02-20T11:07:41.195Z,62.33
2018-02-20T11:10:09.417Z,62.71
2018-02-20T11:12:37.671Z,64.97
2018-02-20T11:15:06.698Z,65.96
2018-02-20T11:17:34.963Z,64.82
2018-02-20T11:20:03.243Z,64.53
2018-02-20T11:22:31.485Z,63.36
2018-02-20T11:25:00.608Z,64.52
2018-02-20T11:27:28.868Z,62.17
2018-02-20T11:29:57.114Z,62.68
2018-02-20T11:32:25.378Z,61.66
2018-02-20T11:34:53.630Z,61.83
2018-02-20T11:37:21.880Z,61.34
2018-02-20T11:39:50.138Z,64.11
2018-02-20T11:42:18.409Z,64.57
2018-02-20T11:44:47.519Z,64.05
2018-02-20T11:47:15.767Z,65.38
2018-02-20T11:49:44.783Z,64.08
2018-02-20T11:54:47.459Z,64.49
2018-02-20T11:57:16.483Z,63.82
2018-02-20T11:59:44.734Z,62.61
2018-02-20T12:02:13.747Z,60.38
2018-02-20T12:04:42.011Z,62.11
2018-02-20T12:07:11.031Z,62.42
2018-02-20T12:09:39.339Z,60.05
2018-02-20T12:12:07.582Z,59.36
2018-02-20T12:14:35.862Z,60.69
2018-02-20T12:17:04.139Z,61.56
2018-02-20T12:19:32.386Z,60.58
2018-02-20T12:22:00.658Z,59.79
2018-02-20T12:24:29.677Z,58.83
2018-02-20T12:26:57.968Z,58.77
2018-02-20T12:29:26.216Z,57.01
2018-02-20T12:31:54.506Z,57.06
2018-02-20T12:34:22.772Z,55.95
2018-02-20T12:36:51.027Z,56.91
2018-02-20T12:39:20.080Z,58.47
2018-02-20T12:41:48.328Z,58.44
2018-02-20T12:44:16.599Z,59.70
2018-02-20T12:46:44.857Z,59.38
2018-02-20T12:49:13.126Z,59.03
2018-02-20T12:51:42.147Z,60.31
2018-02-20T12:54:10.415Z,60.28
2018-02-20T12:56:38.674Z,59.25
2018-02-20T12:59:07.748Z,57.38
2018-02-20T13:01:35.965Z,57.16
2018-02-20T13:04:04.226Z,57.03
2018-02-20T13:06:32.492Z,57.82
2018-02-20T13:09:01.508Z,56.25
2018-02-20T13:11:29.755Z,55.08
2018-02-20T13:13:58.794Z,54.88
2018-02-20T13:16:27.047Z,54.66
2018-02-20T13:18:55.319Z,54.22
2018-02-20T13:21:23.595Z,55.07
2018-02-20T13:23:51.849Z,54.23
2018-02-20T13:26:20.867Z,54.13
2018-02-20T13:28:49.127Z,52.34
2018-02-20T13:31:18.147Z,50.71
2018-02-20T13:33:46.407Z,50.34
2018-02-20T13:36:14.683Z,48.31
2018-02-20T13:38:42.951Z,46.92
2018-02-20T13:41:12.033Z,45.13
2018-02-20T13:43:41.063Z,47.42
2018-02-20T13:46:09.328Z,46.46
2018-02-20T13:48:37.605Z,49.26
2018-02-20T13:51:05.858Z,48.25
2018-02-20T13:53:34.876Z,51.18
2018-02-20T13:56:03.155Z,51.43
2018-02-20T13:58:31.414Z,50.40
2018-02-20T14:00:59.683Z,48.97
2018-02-20T14:03:28.751Z,47.17
2018-02-20T14:05:57.012Z,45.74
2018-02-20T14:08:25.287Z,45.27
2018-02-20T14:10:53.551Z,45.19
2018-02-20T14:13:21.834Z,48.29
2018-02-20T14:15:50.098Z,48.64
2018-02-20T14:18:18.396Z,47.35
2018-02-20T14:20:46.647Z,47.39
2018-02-20T14:23:14.916Z,46.29
2018-02-20T14:25:43.198Z,45.89
2018-02-20T14:28:11.558Z,45.67
2018-02-20T14:30:39.829Z,46.26
2018-02-20T14:33:08.145Z,46.96
2018-02-20T14:35:36.351Z,48.17
2018-02-20T14:38:05.411Z,48.56
2018-02-20T14:40:33.663Z,47.37
2018-02-20T14:43:01.951Z,44.96
2018-02-20T14:45:30.239Z,43.67
2018-02-20T14:47:58.531Z,42.79
2018-02-20T14:50:26.817Z,43.86
2018-02-20T14:52:55.104Z,46.17
2018-02-20T14:55:24.130Z,47.17
2018-02-20T14:57:52.390Z,45.72
2018-02-20T15:00:20.659Z,45.41
2018-02-20T15:02:48.922Z,44.77
2018-02-20T15:05:17.959Z,43.08
2018-02-20T15:07:46.231Z,41.81
2018-02-20T15:10:14.483Z,41.38
2018-02-20T15:12:42.759Z,42.16
2018-02-20T15:15:11.011Z,41.65
2018-02-20T15:17:39.298Z,41.44
2018-02-20T15:20:08.371Z,42.37
2018-02-20T15:22:36.648Z,42.28
2018-02-20T15:25:04.947Z,42.16
2018-02-20T15:27:33.983Z,42.21
2018-02-20T15:30:02.262Z,44.79
2018-02-20T15:32:30.516Z,45.56
2018-02-20T15:34:58.775Z,47.04
2018-02-20T15:37:27.043Z,47.73
2018-02-20T15:39:56.091Z,48.43
2018-02-20T15:42:24.380Z,50.36
2018-02-20T15:44:52.623Z,51.34
2018-02-20T15:47:20.888Z,51.88
2018-02-20T15:49:49.178Z,52.15
2018-02-20T15:52:17.461Z,52.25
2018-02-20T15:54:45.738Z,53.05
2018-02-20T15:57:14.182Z,53.43
2018-02-20T15:59:42.466Z,55.79
2018-02-20T16:02:10.863Z,56.84
2018-02-20T16:04:39.124Z,57.48
2018-02-20T16:07:07.572Z,57.90
2018-02-20T16:09:35.823Z,58.66
2018-02-20T16:12:04.075Z,59.17
2018-02-20T16:14:32.348Z,60.01
2018-02-20T16:17:01.499Z,61.08
2018-02-20T16:19:30.568Z,61.97
2018-02-20T16:21:58.815Z,61.97
2018-02-20T16:24:27.094Z,62.64
2018-02-20T16:26:55.355Z,63.40
2018-02-20T16:29:23.626Z,64.00
2018-02-20T16:31:51.905Z,64.27
2018-02-20T16:34:20.163Z,64.71
2018-02-20T16:36:48.415Z,64.58
2018-02-20T16:39:16.745Z,65.23
2018-02-20T16:41:45.032Z,65.68
2018-02-20T16:44:13.382Z,65.86
2018-02-20T16:46:41.714Z,66.61
2018-02-20T16:49:10.947Z,66.44
2018-02-20T16:51:39.813Z,67.15
2018-02-20T16:54:08.581Z,67.26
2018-02-20T16:56:38.079Z,67.82
2018-02-20T16:59:06.399Z,68.04
2018-02-20T17:01:35.828Z,69.43
2018-02-20T17:04:04.514Z,69.67
2018-02-20T17:06:33.793Z,69.57
2018-02-20T17:09:02.552Z,70.41
2018-02-20T17:11:31.021Z,70.96
2018-02-20T17:14:00.147Z,71.29
2018-02-20T17:16:29.875Z,71.62
2018-02-20T17:18:58.674Z,71.28
2018-02-20T17:21:27.418Z,70.88
2018-02-20T17:23:56.026Z,70.44
2018-02-20T17:26:25.411Z,70.40
2018-02-20T17:28:55.172Z,70.61
2018-02-20T17:31:25.326Z,70.20
2018-02-20T17:33:55.242Z,70.59
2018-02-20T17:36:24.963Z,70.97
2018-02-20T17:38:54.814Z,70.81
2018-02-20T17:41:24.451Z,70.83
2018-02-20T17:43:54.377Z,71.26
2018-02-20T17:46:24.267Z,71.24
2018-02-20T17:48:54.352Z,71.09
2018-02-20T17:51:24.796Z,70.96
2018-02-20T17:53:54.492Z,71.12
2018-02-20T17:56:24.285Z,71.06
2018-02-20T17:58:54.187Z,71.91
2018-02-20T18:01:23.970Z,71.76
2018-02-20T18:03:54.012Z,71.64
2018-02-20T18:06:23.979Z,71.23
2018-02-20T18:08:54.771Z,71.54
2018-02-20T18:11:24.445Z,71.67
2018-02-20T18:13:54.770Z,71.76
2018-02-20T18:16:24.501Z,72.54
2018-02-20T18:18:54.463Z,73.12
2018-02-20T18:21:25.391Z,73.13
2018-02-20T18:23:55.652Z,73.71
2018-02-20T18:26:25.668Z,73.79
2018-02-20T18:28:55.838Z,74.03
2018-02-20T18:31:25.078Z,73.90
2018-02-20T18:33:55.340Z,74.40
2018-02-20T18:36:25.320Z,74.14
2018-02-20T18:38:54.662Z,73.90
2018-02-20T18:41:23.979Z,73.87
2018-02-20T18:43:53.362Z,73.90
2018-02-20T18:46:23.833Z,73.69
2018-02-20T18:48:54.054Z,73.24
2018-02-20T18:51:25.199Z,72.76
2018-02-20T18:53:55.353Z,72.08
2018-02-20T18:56:24.729Z,72.00
2018-02-20T18:58:54.023Z,72.61
2018-02-20T19:01:23.346Z,72.79
2018-02-20T19:03:52.818Z,72.63
2018-02-20T19:06:22.124Z,72.20
2018-02-20T19:08:51.598Z,71.92
2018-02-20T19:11:20.881Z,72.00
2018-02-20T19:13:50.174Z,72.85
2018-02-20T19:16:19.642Z,72.81
2018-02-20T19:18:48.886Z,73.24
2018-02-20T19:21:18.364Z,73.42
2018-02-20T19:23:47.653Z,73.05
2018-02-20T19:26:17.013Z,72.95
2018-02-20T19:28:46.305Z,73.03
2018-02-20T19:31:15.614Z,72.78
2018-02-20T19:33:45.146Z,72.88
2018-02-20T19:36:15.264Z,73.32
2018-02-20T19:38:45.761Z,73.26
2018-02-20T19:41:17.770Z,73.00
2018-02-20T19:43:48.146Z,72.94
2018-02-20T19:46:18.188Z,73.05
2018-02-20T19:48:47.622Z,73.42
2018-02-20T19:51:17.058Z,73.44
2018-02-20T19:53:46.424Z,74.05
2018-02-20T19:56:15.849Z,74.40
2018-02-20T19:58:45.183Z,74.20
2018-02-20T20:01:15.175Z,75.01
2018-02-20T20:03:44.534Z,74.72
2018-02-20T20:06:13.884Z,74.78
2018-02-20T20:08:43.674Z,74.35
2018-02-20T20:11:12.944Z,75.43
2018-02-20T20:13:43.172Z,75.05
2018-02-20T20:16:12.522Z,74.64
2018-02-20T20:18:41.946Z,74.81
2018-02-20T20:21:12.166Z,74.77
2018-02-20T20:23:42.361Z,75.02
2018-02-20T20:26:11.616Z,74.84
2018-02-20T20:28:41.097Z,75.21
2018-02-20T20:31:11.619Z,75.15
2018-02-20T20:33:40.949Z,75.26
2018-02-20T20:36:10.380Z,76.15
2018-02-20T20:38:39.666Z,75.87
2018-02-20T20:41:09.026Z,75.84
2018-02-20T20:43:39.292Z,75.33
2018-02-20T20:46:08.563Z,74.80
2018-02-20T20:48:37.946Z,73.40
2018-02-20T20:51:07.984Z,71.94
2018-02-20T20:53:38.138Z,72.64
2018-02-20T20:56:07.485Z,72.39
2018-02-20T20:58:38.610Z,72.49
2018-02-20T21:01:07.854Z,72.55
2018-02-20T21:03:37.110Z,71.82
2018-02-20T21:06:06.748Z,71.39
2018-02-20T21:08:36.779Z,71.41
2018-02-20T21:11:06.157Z,70.37
2018-02-20T21:13:36.255Z,69.87
2018-02-20T21:16:05.723Z,69.50
2018-02-20T21:18:35.057Z,70.03
2018-02-20T21:21:04.480Z,70.43
2018-02-20T21:23:34.544Z,70.41
2018-02-20T21:26:03.885Z,70.74
2018-02-20T21:28:33.193Z,71.24
2018-02-20T21:31:03.357Z,71.28
2018-02-20T21:33:32.675Z,71.19
2018-02-20T21:36:01.982Z,71.62
2018-02-20T21:38:31.335Z,71.37
2018-02-20T21:41:01.523Z,70.93
2018-02-20T21:43:30.933Z,71.05
2018-02-20T21:46:00.336Z,71.71
2018-02-20T21:48:29.737Z,71.70
2018-02-20T21:50:59.007Z,71.75
2018-02-20T21:53:28.474Z,71.94
2018-02-20T21:55:57.711Z,71.62
2018-02-20T21:58:27.104Z,71.64
2018-02-20T22:00:56.373Z,71.58
2018-02-20T22:03:25.704Z,71.17
2018-02-20T22:05:54.946Z,71.49
2018-02-20T22:08:24.181Z,71.24
2018-02-20T22:10:53.382Z,71.51
2018-02-20T22:13:22.615Z,71.52
2018-02-20T22:15:52.530Z,71.00
2018-02-20T22:18:20.958Z,71.22
2018-02-20T22:20:49.254Z,71.05
2018-02-20T22:23:17.543Z,71.12
2018-02-20T22:25:45.890Z,70.77
2018-02-20T22:28:14.210Z,70.98
2018-02-20T22:30:43.449Z,71.01
2018-02-20T22:33:11.707Z,71.47
2018-02-20T22:35:40.719Z,71.91
2018-02-20T22:38:08.992Z,71.66
2018-02-20T22:40:37.280Z,73.41
2018-02-20T22:43:05.555Z,74.17
2018-02-20T22:45:33.960Z,74.19
2018-02-20T22:48:02.220Z,74.49
2018-02-20T22:50:30.470Z,74.96
2018-02-20T22:52:58.735Z,74.99
2018-02-20T22:55:26.987Z,75.41
2018-02-20T22:57:55.258Z,75.15
2018-02-20T23:00:23.506Z,75.38
2018-02-20T23:02:51.788Z,75.45
2018-02-20T23:05:20.039Z,75.73
2018-02-20T23:07:48.307Z,75.24
2018-02-20T23:10:16.559Z,75.58
2018-02-20T23:12:45.580Z,75.19
2018-02-20T23:15:13.854Z,75.18
2018-02-20T23:17:42.103Z,75.94
2018-02-20T23:20:11.132Z,75.56
2018-02-20T23:43:21.261Z,75.95
2018-02-20T23:45:49.524Z,76.24
2018-02-20T23:48:17.789Z,76.29
2018-02-20T23:50:46.080Z,76.88
2018-02-20T23:53:14.604Z,76.59
2018-02-20T23:55:42.884Z,76.38
2018-02-20T23:58:11.155Z,76.30
